Time;durP1;ratioP1;P1;durP2;ratioP2;P2;SDS_P1;SDS_P2;PMS_P1;PMS_P2;Temp;Humidity;BMP_temperature;BMP_pressure;BME280_temperature;BME280_humidity;BME280_pressure;Samples;Min_cycle;Max_cycle;Signal;HPM_P1;HPM_P2
2023/08/25 00:01:54;;;;;;;3.25;2.28;;;;;;;22.84;63.01;100823.09;5039375;27;20070;-65
2023/08/25 00:04:23;;;;;;;2.70;2.05;;;;;;;22.82;62.85;100824.50;5055822;27;20049;-65
2023/08/25 00:06:51;;;;;;;5.10;1.88;;;;;;;22.80;62.94;100818.50;5058782;27;20049;-65
2023/08/25 00:09:19;;;;;;;4.97;1.88;;;;;;;22.79;62.85;100825.06;5036625;27;20053;-65
2023/08/25 00:11:47;;;;;;;3.58;1.90;;;;;;;22.76;63.09;100823.75;5072430;27;20061;-65
2023/08/25 00:14:15;;;;;;;4.88;2.47;;;;;;;22.74;63.34;100821.31;5053939;27;20109;-65
2023/08/25 00:16:43;;;;;;;4.53;2.05;;;;;;;22.72;63.17;100829.03;5041929;27;20049;-65
2023/08/25 00:19:11;;;;;;;6.18;2.15;;;;;;;22.72;63.59;100833.69;5044929;27;20049;-65
2023/08/25 00:21:40;;;;;;;3.63;1.98;;;;;;;22.70;63.36;100844.97;5036970;27;20075;-65
2023/08/25 00:24:08;;;;;;;3.92;2.20;;;;;;;22.68;62.97;100830.75;5071602;27;20060;-65
2023/08/25 00:26:37;;;;;;;4.50;2.05;;;;;;;22.68;63.19;100843.63;5038963;27;20053;-65
2023/08/25 00:29:04;;;;;;;3.45;1.95;;;;;;;22.66;63.50;100834.91;5064214;27;20047;-65
2023/08/25 00:31:33;;;;;;;3.22;2.03;;;;;;;22.64;63.22;100842.63;5041953;28;20114;-65
2023/08/25 00:34:02;;;;;;;3.63;2.00;;;;;;;22.63;63.67;100850.03;5033899;28;20075;-65
2023/08/25 00:36:30;;;;;;;5.95;2.20;;;;;;;22.61;63.46;100849.50;5046434;27;20050;-65
2023/08/25 00:38:59;;;;;;;4.00;2.22;;;;;;;22.60;63.43;100845.16;5056271;27;20049;-65
2023/08/25 00:41:27;;;;;;;3.13;2.20;;;;;;;22.58;63.38;100844.66;5067783;27;20122;-66
2023/08/25 00:43:55;;;;;;;5.65;2.17;;;;;;;22.57;63.68;100851.22;5042796;27;20075;-64
2023/08/25 00:46:23;;;;;;;3.47;2.00;;;;;;;22.55;63.77;100847.97;5060909;27;20099;-65
2023/08/25 00:48:51;;;;;;;3.33;2.33;;;;;;;22.55;63.87;100847.16;5066097;27;20058;-64
2023/08/25 00:51:20;;;;;;;3.28;2.22;;;;;;;22.52;63.58;100856.84;5046800;27;20057;-65
2023/08/25 00:53:48;;;;;;;2.17;1.65;;;;;;;22.51;64.06;100847.00;5049808;27;20068;-64
2023/08/25 00:56:19;;;;;;;3.95;2.00;;;;;;;22.51;63.66;100849.72;5052718;27;20339;-64
2023/08/25 00:58:47;;;;;;;3.45;2.20;;;;;;;22.49;63.50;100848.41;5047609;27;20053;-65
2023/08/25 01:01:14;;;;;;;3.83;2.20;;;;;;;22.48;63.74;100853.06;5043949;27;20110;-65
2023/08/25 01:03:43;;;;;;;2.97;1.98;;;;;;;22.47;63.56;100853.38;5044086;28;20049;-65
2023/08/25 01:06:11;;;;;;;5.65;2.47;;;;;;;22.45;64.06;100850.94;5043044;28;20456;-65
2023/08/25 01:08:39;;;;;;;7.07;2.20;;;;;;;22.45;63.95;100850.13;5045731;28;20046;-65
2023/08/25 01:11:21;;;;;;;4.57;2.13;;;;;;;22.46;64.22;100857.22;5035816;27;20073;-64
2023/08/25 01:13:59;;;;;;;4.20;2.50;;;;;;;22.44;64.32;100848.50;5047278;27;20045;-64
2023/08/25 01:16:32;;;;;;;3.10;2.10;;;;;;;22.43;64.50;100852.34;5040139;27;20087;-66
2023/08/25 01:19:04;;;;;;;7.35;2.47;;;;;;;22.41;64.37;100847.19;5044538;27;20045;-66
2023/08/25 01:21:36;;;;;;;3.58;2.03;;;;;;;22.40;64.27;100851.84;5042211;27;20094;-65
2023/08/25 01:24:13;;;;;;;3.45;2.00;;;;;;;22.41;64.38;100852.66;5052978;27;20045;-65
2023/08/25 01:26:42;;;;;;;5.20;2.63;;;;;;;22.39;64.39;100847.47;5042247;27;20098;-65
2023/08/25 01:29:11;;;;;;;4.68;2.65;;;;;;;22.38;64.20;100845.84;5036247;27;20075;-65
2023/08/25 01:31:38;;;;;;;6.85;2.50;;;;;;;22.23;64.25;100821.47;5047420;27;20122;-66
2023/08/25 01:34:06;;;;;;;5.63;2.75;;;;;;;22.30;63.88;100826.56;5042184;27;20056;-64
2023/08/25 01:36:41;;;;;;;4.90;2.17;;;;;;;22.36;64.46;100828.09;5058038;27;20046;-64
2023/08/25 01:39:11;;;;;;;4.15;2.33;;;;;;;22.35;64.20;100827.28;5057047;27;20045;-64
2023/08/25 01:41:45;;;;;;;3.47;1.90;;;;;;;22.35;64.02;100831.94;5050514;27;20079;-65
2023/08/25 01:44:15;;;;;;;4.00;2.17;;;;;;;22.27;64.21;100821.69;5041185;28;20132;-65
2023/08/25 01:46:45;;;;;;;2.97;1.88;;;;;;;22.33;64.12;100826.78;5037387;28;20071;-66
2023/08/25 01:49:14;;;;;;;5.53;2.20;;;;;;;22.32;64.02;100824.34;5043142;28;20054;-65
2023/08/25 01:51:43;;;;;;;2.63;1.90;;;;;;;22.30;63.99;100830.09;5069295;27;20135;-64
2023/08/25 01:54:13;;;;;;;4.10;2.30;;;;;;;22.31;64.23;100826.25;5044819;28;20079;-64
2023/08/25 01:56:41;;;;;;;4.25;2.42;;;;;;;22.28;64.35;100826.03;5060983;28;20054;-64
2023/08/25 01:59:11;;;;;;;3.20;2.13;;;;;;;22.27;64.44;100819.75;5045457;27;20049;-64
2023/08/25 02:01:39;;;;;;;3.30;2.33;;;;;;;22.26;64.44;100820.88;5047129;28;20054;-65
2023/08/25 02:04:07;;;;;;;3.90;2.22;;;;;;;22.25;64.44;100819.25;5045982;28;20051;-65
2023/08/25 02:06:36;;;;;;;3.53;2.08;;;;;;;22.25;64.29;100815.69;5074159;28;20067;-65
2023/08/25 02:09:04;;;;;;;3.40;2.28;;;;;;;22.23;64.35;100816.00;5061293;27;20053;-64
2023/08/25 02:11:32;;;;;;;4.00;2.33;;;;;;;22.22;64.38;100814.38;5064421;28;20053;-65
2023/08/25 02:14:00;;;;;;;2.60;2.08;;;;;;;22.21;64.62;100811.94;5068705;27;20053;-63
2023/08/25 02:16:29;;;;;;;3.78;2.42;;;;;;;22.20;64.79;100808.38;5046692;28;20077;-65
2023/08/25 02:18:57;;;;;;;2.90;2.20;;;;;;;22.19;64.61;100798.53;5054568;28;20105;-65
2023/08/25 02:21:25;;;;;;;3.40;2.13;;;;;;;22.18;64.67;100802.41;5064591;28;20052;-65
2023/08/25 02:23:53;;;;;;;4.53;2.22;;;;;;;22.18;64.85;100809.78;5043723;28;20056;-65
2023/08/25 02:26:21;;;;;;;4.95;2.10;;;;;;;22.17;64.75;100802.69;5070241;28;20042;-64
2023/08/25 02:28:48;;;;;;;3.97;2.15;;;;;;;22.16;64.81;100798.34;5045712;28;20049;-65
2023/08/25 02:31:16;;;;;;;3.42;2.00;;;;;;;22.15;64.88;100797.53;5059886;28;20047;-65
2023/08/25 02:33:46;;;;;;;5.18;2.30;;;;;;;22.14;64.84;100792.34;5041121;28;20083;-65
2023/08/25 02:36:13;;;;;;;6.32;2.08;;;;;;;22.13;64.81;100791.53;5075121;28;20049;-65
2023/08/25 02:38:41;;;;;;;4.90;2.25;;;;;;;22.12;64.86;100787.19;5036296;28;20066;-65
2023/08/25 02:41:09;;;;;;;3.97;2.28;;;;;;;22.11;64.73;100784.72;5053478;28;20039;-64
2023/08/25 02:43:37;;;;;;;4.22;2.28;;;;;;;22.10;65.19;100783.09;5045009;28;20520;-66
2023/08/25 02:46:05;;;;;;;6.45;2.88;;;;;;;22.08;65.16;100772.47;5051015;28;20050;-65
2023/08/25 02:48:32;;;;;;;3.22;2.20;;;;;;;22.08;64.69;100773.28;5046607;28;20049;-66
2023/08/25 02:51:03;;;;;;;2.60;1.98;;;;;;;22.02;65.10;100757.25;5043621;28;20071;-66
2023/08/25 02:53:30;;;;;;;4.93;2.05;;;;;;;22.08;64.84;100761.50;5047113;28;20042;-65
2023/08/25 02:55:58;;;;;;;4.30;2.30;;;;;;;22.06;64.65;100755.53;5061139;28;20042;-65
2023/08/25 02:58:26;;;;;;;3.75;2.28;;;;;;;22.05;64.87;100754.72;5040104;28;20061;-65
2023/08/25 03:00:54;;;;;;;3.83;2.33;;;;;;;22.05;64.94;100757.44;5041350;28;20142;-65
2023/08/25 03:03:22;;;;;;;7.45;2.22;;;;;;;22.03;65.09;100748.72;5053270;28;20076;-65
2023/08/25 03:05:50;;;;;;;7.25;2.40;;;;;;;22.03;64.71;100754.19;5048114;28;20151;-65
2023/08/25 03:08:20;;;;;;;3.85;2.38;;;;;;;22.03;64.99;100750.66;5054181;28;20065;-65
2023/08/25 03:10:48;;;;;;;5.53;2.70;;;;;;;22.02;65.26;100749.03;5042763;28;20075;-65
2023/08/25 03:13:16;;;;;;;3.28;2.03;;;;;;;22.00;65.61;100757.50;5070374;28;20074;-65
2023/08/25 03:15:54;;;;;;;7.00;2.80;;;;;;;21.99;65.37;100744.94;5047671;28;20053;-65
2023/08/25 03:18:22;;;;;;;3.92;2.60;;;;;;;22.00;65.20;100749.31;5037742;27;20050;-65
2023/08/25 03:20:51;;;;;;;8.35;2.53;;;;;;;22.00;65.32;100746.56;5082221;27;20053;-65
2023/08/25 03:23:21;;;;;;;4.82;2.38;;;;;;;21.97;65.49;100732.66;5061904;27;20051;-65
2023/08/25 03:25:49;;;;;;;9.02;3.17;;;;;;;22.01;65.50;100730.94;5097815;27;20089;-65
2023/08/25 03:28:17;;;;;;;3.40;2.15;;;;;;;22.00;65.69;100730.16;5060170;27;20060;-65
2023/08/25 03:30:45;;;;;;;6.47;2.55;;;;;;;21.99;65.63;100725.78;5053419;27;20063;-65
2023/08/25 03:33:12;;;;;;;3.08;2.10;;;;;;;21.97;65.48;100716.25;5057184;27;20115;-64
2023/08/25 03:35:40;;;;;;;4.43;2.20;;;;;;;21.99;65.55;100716.75;5053701;27;20046;-66
2023/08/25 03:38:08;;;;;;;3.83;2.30;;;;;;;21.97;65.47;100710.78;5067586;27;20082;-65
2023/08/25 03:40:37;;;;;;;4.03;2.47;;;;;;;21.97;65.64;100713.50;5061963;27;20064;-66
2023/08/25 03:43:05;;;;;;;2.92;2.22;;;;;;;21.96;65.64;100707.22;5124917;27;20047;-64
2023/08/25 03:45:35;;;;;;;3.08;2.10;;;;;;;21.96;65.14;100707.22;5071081;27;20049;-65
2023/08/25 03:48:04;;;;;;;3.92;2.30;;;;;;;21.96;65.44;100709.97;5068990;27;20059;-65
2023/08/25 03:50:32;;;;;;;3.03;2.17;;;;;;;21.96;65.40;100717.34;5099651;27;20406;-64
2023/08/25 03:53:00;;;;;;;4.60;2.50;;;;;;;21.95;65.51;100704.78;5041498;28;20054;-64
2023/08/25 03:55:28;;;;;;;6.10;2.30;;;;;;;21.95;65.56;100711.06;5050479;27;20049;-64
2023/08/25 03:57:58;;;;;;;4.95;2.40;;;;;;;21.94;65.59;100714.94;5041029;28;20045;-64
2023/08/25 04:00:26;;;;;;;3.28;2.30;;;;;;;21.93;65.56;100713.31;5043017;27;20057;-65
2023/08/25 04:02:53;;;;;;;4.65;2.10;;;;;;;21.92;65.44;100708.94;5040582;28;20432;-64
2023/08/25 04:05:21;;;;;;;5.72;2.28;;;;;;;21.85;65.48;100691.28;5043773;27;20105;-65
2023/08/25 04:07:50;;;;;;;2.85;2.25;;;;;;;21.91;65.56;100698.28;5039308;27;20049;-65
2023/08/25 04:10:18;;;;;;;3.47;2.20;;;;;;;21.90;65.74;100702.16;5041755;28;20137;-65
2023/08/25 04:12:46;;;;;;;3.60;2.25;;;;;;;21.88;65.67;100702.44;5042617;27;21419;-64
2023/08/25 04:15:16;;;;;;;3.90;2.30;;;;;;;21.89;65.71;100703.25;5041452;28;20045;-65
2023/08/25 04:17:43;;;;;;;4.53;2.17;;;;;;;21.88;65.55;100698.91;5032723;28;20075;-65
2023/08/25 04:20:14;;;;;;;5.53;2.58;;;;;;;21.87;65.67;100702.75;5050585;27;20056;-65
2023/08/25 04:22:42;;;;;;;5.50;2.33;;;;;;;21.86;65.90;100701.94;5043940;27;20140;-65
2023/08/25 04:25:09;;;;;;;4.95;2.35;;;;;;;21.85;65.51;100697.56;5038747;27;20042;-65
2023/08/25 04:27:37;;;;;;;4.95;2.63;;;;;;;21.85;65.91;100697.56;5055632;27;20451;-65
2023/08/25 04:30:06;;;;;;;4.97;2.17;;;;;;;21.85;65.93;100699.50;5069797;27;20051;-65
2023/08/25 04:32:36;;;;;;;3.75;2.30;;;;;;;21.83;65.39;100699.78;5047445;27;20053;-65
2023/08/25 04:35:04;;;;;;;5.00;2.83;;;;;;;21.82;65.60;100705.56;5053917;27;20084;-65
2023/08/25 04:37:32;;;;;;;5.07;2.28;;;;;;;21.81;65.59;100712.16;5048814;27;20099;-66
2023/08/25 04:40:00;;;;;;;3.17;2.13;;;;;;;21.80;65.96;100711.34;5044616;27;20049;-66
2023/08/25 04:42:28;;;;;;;6.57;2.25;;;;;;;21.80;65.88;100705.06;5032809;28;20448;-66
2023/08/25 04:44:56;;;;;;;6.80;2.13;;;;;;;21.79;65.54;100706.16;5054681;27;20041;-66
2023/08/25 04:47:25;;;;;;;4.15;2.65;;;;;;;21.77;65.84;100707.28;5047670;27;20042;-66
2023/08/25 04:49:57;;;;;;;3.38;2.13;;;;;;;21.77;65.55;100711.94;5065700;27;20047;-66
2023/08/25 04:52:28;;;;;;;5.38;2.20;;;;;;;21.76;65.76;100707.59;5039944;28;20054;-66
2023/08/25 04:54:56;;;;;;;5.32;2.30;;;;;;;21.75;65.71;100703.22;5050347;27;20075;-65
2023/08/25 04:57:24;;;;;;;4.47;2.67;;;;;;;21.74;65.80;100696.13;5039201;28;20042;-66
2023/08/25 04:59:52;;;;;;;4.50;2.38;;;;;;;21.72;65.61;100690.97;5041991;28;20043;-66
2023/08/25 05:02:19;;;;;;;4.63;2.55;;;;;;;21.72;65.58;100692.88;4700384;27;9999941;-66
2023/08/25 05:04:48;;;;;;;4.03;2.08;;;;;;;21.71;65.82;100675.66;5055816;27;21485;-66
2023/08/25 05:07:17;;;;;;;4.30;2.30;;;;;;;21.69;65.66;100668.84;5062327;27;20053;-65
2023/08/25 05:09:45;;;;;;;3.50;2.30;;;;;;;21.69;65.66;100666.94;5048030;27;20050;-66
2023/08/25 05:12:13;;;;;;;4.97;2.40;;;;;;;21.67;65.80;100671.91;5030826;28;20053;-65
2023/08/25 05:14:42;;;;;;;3.85;2.70;;;;;;;21.66;65.75;100686.69;5036003;27;20053;-65
2023/08/25 05:17:10;;;;;;;3.15;2.25;;;;;;;21.66;65.59;100683.94;5038249;27;20049;-66
2023/08/25 05:19:37;;;;;;;5.55;2.50;;;;;;;21.65;65.39;100692.47;5038843;27;20435;-65
2023/08/25 05:22:05;;;;;;;5.50;2.58;;;;;;;21.66;65.70;100696.81;5040580;27;20098;-65
2023/08/25 05:24:35;;;;;;;3.28;2.55;;;;;;;21.63;65.43;100698.22;5059661;27;20053;-66
2023/08/25 05:27:03;;;;;;;4.80;2.10;;;;;;;21.62;65.49;100695.78;5067407;27;20049;-64
2023/08/25 05:29:31;;;;;;;4.20;2.30;;;;;;;21.62;65.37;100695.78;5062643;27;20079;-64
2023/08/25 05:31:59;;;;;;;3.10;2.42;;;;;;;21.62;65.59;100688.41;5059488;27;20066;-64
2023/08/25 05:34:27;;;;;;;5.35;2.55;;;;;;;21.61;65.68;100675.84;5045114;27;20478;-65
2023/08/25 05:36:55;;;;;;;4.13;2.53;;;;;;;21.61;65.54;100677.75;5057930;27;20114;-65
2023/08/25 05:39:23;;;;;;;3.70;2.22;;;;;;;21.60;65.38;100674.22;5055546;27;20053;-65
2023/08/25 05:41:52;;;;;;;3.42;2.25;;;;;;;21.60;65.13;100676.13;5049655;27;20057;-66
2023/08/25 05:44:20;;;;;;;8.05;2.67;;;;;;;21.59;65.43;100666.31;5089874;27;20071;-65
2023/08/25 05:46:48;;;;;;;3.30;2.10;;;;;;;21.59;65.50;100656.16;5051833;27;20052;-66
2023/08/25 05:49:16;;;;;;;4.57;2.53;;;;;;;21.58;65.45;100654.56;5053225;27;20074;-66
2023/08/25 05:51:44;;;;;;;5.13;2.30;;;;;;;21.58;65.38;100654.56;5053969;27;20652;-65
2023/08/25 05:54:12;;;;;;;4.55;2.55;;;;;;;21.58;65.79;100662.75;5031622;28;20057;-66
2023/08/25 05:56:40;;;;;;;5.35;2.55;;;;;;;21.57;65.62;100666.59;5061102;27;20053;-65
2023/08/25 05:59:09;;;;;;;4.75;2.60;;;;;;;21.57;65.69;100669.34;5051344;28;20053;-64
2023/08/25 06:01:37;;;;;;;4.43;2.67;;;;;;;21.58;65.69;100678.34;5049752;27;20095;-63
2023/08/25 06:04:05;;;;;;;6.68;2.45;;;;;;;21.57;65.70;100649.38;5093253;28;20049;-63
2023/08/25 06:06:33;;;;;;;3.60;2.50;;;;;;;21.55;65.46;100638.75;5092415;27;20137;-63
2023/08/25 06:09:01;;;;;;;5.53;2.28;;;;;;;21.56;65.43;100651.31;5068347;28;20061;-64
2023/08/25 06:11:29;;;;;;;3.25;2.22;;;;;;;21.56;65.67;100645.84;5058148;28;20061;-63
2023/08/25 06:13:57;;;;;;;5.60;2.80;;;;;;;21.54;65.60;100648.06;5087573;28;20043;-62
2023/08/25 06:16:26;;;;;;;5.35;2.45;;;;;;;21.54;65.64;100667.19;5050557;28;20046;-64
2023/08/25 06:18:54;;;;;;;4.90;2.05;;;;;;;21.53;65.68;100662.84;5038026;28;20046;-63
2023/08/25 06:21:22;;;;;;;4.90;2.65;;;;;;;21.53;65.85;100667.50;5092171;28;20050;-64
2023/08/25 06:23:50;;;;;;;4.07;2.40;;;;;;;21.52;66.03;100674.88;5045822;28;20050;-65
2023/08/25 06:26:18;;;;;;;6.03;2.30;;;;;;;21.52;65.87;100685.03;5049231;28;20053;-65
2023/08/25 06:28:46;;;;;;;7.55;2.80;;;;;;;21.52;66.08;100690.47;5030859;28;20056;-64
2023/08/25 06:31:16;;;;;;;3.53;2.20;;;;;;;21.51;65.83;100681.47;5077343;28;20157;-63
2023/08/25 06:33:45;;;;;;;4.18;2.63;;;;;;;21.51;65.83;100681.47;5084031;28;20043;-64
2023/08/25 06:36:13;;;;;;;2.83;2.15;;;;;;;21.50;65.95;100668.91;5133422;28;20051;-63
2023/08/25 06:38:41;;;;;;;3.45;2.47;;;;;;;21.50;66.11;100652.50;5036619;28;20118;-64
2023/08/25 06:41:23;;;;;;;3.72;2.30;;;;;;;21.51;65.76;100656.03;5038412;28;20046;-64
2023/08/25 06:43:51;;;;;;;4.85;2.38;;;;;;;21.48;65.88;100652.00;5106245;28;20159;-64
2023/08/25 06:46:19;;;;;;;4.57;2.83;;;;;;;21.48;66.02;100659.38;5070760;28;20053;-65
2023/08/25 06:48:50;;;;;;;5.93;2.53;;;;;;;21.46;65.73;100653.41;5040665;28;20050;-63
2023/08/25 06:51:18;;;;;;;3.03;2.30;;;;;;;21.47;65.86;100657.75;5049733;27;20053;-63
2023/08/25 06:53:46;;;;;;;4.07;2.58;;;;;;;21.47;66.02;100663.22;5046981;27;20060;-63
2023/08/25 06:56:14;;;;;;;6.38;2.33;;;;;;;21.46;65.78;100650.66;5070318;27;20058;-64
2023/08/25 06:58:42;;;;;;;4.07;2.50;;;;;;;21.45;65.98;100619.78;5059734;27;20128;-64
2023/08/25 07:01:11;;;;;;;3.25;2.35;;;;;;;21.44;66.16;100623.63;5067632;27;20045;-63
2023/08/25 07:03:39;;;;;;;6.50;2.50;;;;;;;21.43;65.97;100622.81;5053167;27;20069;-62
2023/08/25 07:06:08;;;;;;;4.13;2.60;;;;;;;21.43;66.18;100625.53;5068457;27;20066;-63
2023/08/25 07:08:37;;;;;;;7.13;2.80;;;;;;;21.43;66.13;100613.78;5061825;27;20053;-64
2023/08/25 07:11:05;;;;;;;5.93;3.38;;;;;;;21.41;65.84;100611.34;5041634;27;20283;-64
2023/08/25 07:13:32;;;;;;;3.72;2.40;;;;;;;21.41;65.71;100619.56;5083627;27;20049;-64
2023/08/25 07:16:00;;;;;;;4.65;2.38;;;;;;;21.40;65.62;100628.88;5063188;27;20043;-63
2023/08/25 07:18:28;;;;;;;4.60;2.63;;;;;;;21.40;65.77;100626.13;5041157;27;20065;-63
2023/08/25 07:20:56;;;;;;;6.85;2.60;;;;;;;21.41;65.94;100625.03;5047421;27;20051;-62
2023/08/25 07:23:26;;;;;;;3.92;2.72;;;;;;;21.41;66.00;100621.47;5059299;27;20101;-63
2023/08/25 07:25:54;;;;;;;7.90;2.45;;;;;;;21.40;65.71;100649.94;5084707;27;20049;-63
2023/08/25 07:28:21;;;;;;;4.82;2.53;;;;;;;21.40;65.90;100699.16;5045146;27;20050;-63
2023/08/25 07:30:51;;;;;;;6.60;3.50;;;;;;;21.39;66.54;100736.63;5099016;27;20070;-62
2023/08/25 07:33:19;;;;;;;5.97;3.40;;;;;;;21.38;66.54;100756.06;5083947;27;20069;-64
2023/08/25 07:35:47;;;;;;;5.10;3.15;;;;;;;21.37;66.36;100733.38;5102086;27;20086;-63
2023/08/25 07:38:15;;;;;;;4.32;2.58;;;;;;;21.36;66.05;100720.81;5081876;27;20058;-65
2023/08/25 07:40:45;;;;;;;5.90;3.05;;;;;;;21.37;66.39;100713.41;5101156;27;20108;-64
2023/08/25 07:43:14;;;;;;;4.72;2.75;;;;;;;21.37;66.20;100697.00;5057558;27;20066;-63
2023/08/25 07:45:42;;;;;;;6.38;2.80;;;;;;;21.35;66.22;100705.50;5075567;27;20100;-64
2023/08/25 07:48:10;;;;;;;8.63;2.90;;;;;;;21.35;66.42;100702.78;5045019;27;20061;-66
2023/08/25 07:50:38;;;;;;;4.78;2.47;;;;;;;21.34;66.51;100703.88;5049162;27;20086;-62
2023/08/25 07:53:07;;;;;;;4.18;2.20;;;;;;;21.34;66.40;100682.00;5061600;27;20101;-63
2023/08/25 07:55:39;;;;;;;4.28;2.22;;;;;;;21.34;66.21;100687.47;5041186;27;20045;-63
2023/08/25 07:58:09;;;;;;;3.38;2.20;;;;;;;21.34;66.40;100683.94;5050368;27;20057;-64
2023/08/25 08:00:37;;;;;;;4.25;2.25;;;;;;;21.34;66.37;100701.16;5049217;27;20051;-64
2023/08/25 08:03:08;;;;;;;4.55;2.28;;;;;;;21.33;66.25;100694.06;5060184;27;20049;-62
2023/08/25 08:05:38;;;;;;;5.10;2.50;;;;;;;21.33;66.31;100699.53;5057693;27;20053;-63
2023/08/25 08:08:06;;;;;;;4.90;1.98;;;;;;;21.32;66.41;100697.09;5063076;27;20109;-63
2023/08/25 08:10:34;;;;;;;3.30;2.45;;;;;;;21.32;66.44;100706.09;5044526;27;20446;-63
2023/08/25 08:13:03;;;;;;;3.85;2.50;;;;;;;21.32;66.30;100697.91;5062165;27;20397;-63
2023/08/25 08:15:32;;;;;;;3.28;2.05;;;;;;;21.32;66.23;100699.81;5038276;27;20102;-63
2023/08/25 08:18:00;;;;;;;4.43;2.22;;;;;;;21.30;65.97;100694.66;5040536;27;20058;-63
2023/08/25 08:20:28;;;;;;;4.15;2.10;;;;;;;21.29;66.09;100682.09;5071373;27;20043;-62
2023/08/25 08:22:56;;;;;;;4.78;2.17;;;;;;;21.29;66.20;100687.56;5040008;28;20045;-63
2023/08/25 08:25:25;;;;;;;5.20;2.50;;;;;;;21.29;66.21;100676.63;5041026;28;20057;-62
2023/08/25 08:27:53;;;;;;;3.17;1.90;;;;;;;21.29;66.45;100675.81;5039313;27;20071;-62
2023/08/25 08:30:22;;;;;;;4.93;2.50;;;;;;;21.28;66.33;100666.81;5038528;28;20406;-62
2023/08/25 08:32:51;;;;;;;3.53;2.28;;;;;;;21.28;66.48;100676.91;5045615;27;20058;-60
2023/08/25 08:35:19;;;;;;;3.78;2.60;;;;;;;21.27;66.23;100675.31;5063843;27;20049;-62
2023/08/25 08:37:47;;;;;;;4.55;2.30;;;;;;;21.26;66.33;100696.34;5062406;27;20053;-63
2023/08/25 08:40:16;;;;;;;3.17;2.20;;;;;;;21.26;65.87;100695.53;5054754;27;20057;-64
2023/08/25 08:42:46;;;;;;;2.63;1.98;;;;;;;21.25;65.88;100705.66;5050082;27;20053;-64
2023/08/25 08:45:17;;;;;;;3.60;2.33;;;;;;;21.24;66.08;100709.50;5080494;27;20079;-63
2023/08/25 08:47:46;;;;;;;3.35;2.65;;;;;;;21.25;66.71;100721.25;5038011;27;20049;-63
2023/08/25 08:50:15;;;;;;;4.57;2.15;;;;;;;21.23;66.44;100732.47;5044502;27;20121;-63
2023/08/25 08:52:47;;;;;;;5.22;2.38;;;;;;;21.23;66.45;100746.16;5053324;27;20051;-63
2023/08/25 08:55:16;;;;;;;2.60;2.20;;;;;;;21.24;66.53;100731.38;5040519;27;20045;-63
2023/08/25 08:57:44;;;;;;;3.25;2.15;;;;;;;21.23;66.75;100683.28;5064854;27;20346;-62
2023/08/25 09:00:14;;;;;;;10.80;3.83;;;;;;;21.23;66.98;100675.09;5055735;27;20067;-63
2023/08/25 09:02:44;;;;;;;5.30;3.33;;;;;;;21.23;67.28;100682.47;5054336;27;20046;-64
2023/08/25 09:05:15;;;;;;;4.45;2.47;;;;;;;21.21;67.45;100680.00;5063438;27;20092;-64
2023/08/25 09:07:46;;;;;;;9.68;2.92;;;;;;;21.21;67.32;100668.25;5081923;27;20081;-62
2023/08/25 09:10:14;;;;;;;5.30;2.95;;;;;;;21.20;67.48;100667.44;5088318;27;20138;-63
2023/08/25 09:12:43;;;;;;;7.50;2.88;;;;;;;21.19;67.51;100686.88;5041307;27;20117;-64
2023/08/25 09:15:25;;;;;;;5.18;2.72;;;;;;;21.16;67.37;100717.53;5042683;27;20052;-63
2023/08/25 09:18:00;;;;;;;6.05;3.03;;;;;;;21.19;67.12;100716.94;5050921;27;20049;-63
2023/08/25 09:20:32;;;;;;;4.00;2.25;;;;;;;21.18;67.22;100682.50;5034948;27;20049;-63
2023/08/25 09:23:00;;;;;;;4.78;2.35;;;;;;;21.17;66.93;100672.69;5055332;27;20253;-63
2023/08/25 09:25:29;;;;;;;3.60;2.25;;;;;;;21.17;66.97;100681.69;5061227;27;20053;-62
2023/08/25 09:27:58;;;;;;;5.53;2.58;;;;;;;21.18;66.66;100690.72;5083397;27;20071;-62
2023/08/25 09:30:36;;;;;;;3.42;2.15;;;;;;;21.17;66.38;100687.16;5030050;28;20050;-62
2023/08/25 09:33:06;;;;;;;4.45;3.05;;;;;;;21.17;66.55;100689.91;5039713;28;20049;-62
2023/08/25 09:35:36;;;;;;;4.32;2.55;;;;;;;21.18;67.03;100680.59;5074085;27;20062;-63
2023/08/25 09:38:04;;;;;;;4.65;2.10;;;;;;;21.16;66.62;100674.63;5028269;28;20064;-63
2023/08/25 09:40:33;;;;;;;4.55;2.30;;;;;;;21.16;66.42;100671.88;5041185;28;20458;-63
2023/08/25 09:43:02;;;;;;;4.95;2.65;;;;;;;21.07;66.41;100662.72;5035931;28;20392;-62
2023/08/25 09:45:32;;;;;;;4.18;2.00;;;;;;;21.16;66.47;100690.19;5036297;28;20068;-63
2023/08/25 09:48:10;;;;;;;4.10;2.30;;;;;;;21.16;66.31;100688.28;5038526;28;20045;-63
2023/08/25 09:50:40;;;;;;;4.95;2.50;;;;;;;21.15;66.27;100692.13;5040525;28;20072;-63
2023/08/25 09:53:09;;;;;;;4.15;2.78;;;;;;;21.15;66.29;100689.38;5048993;28;20046;-63
2023/08/25 09:55:38;;;;;;;4.05;2.60;;;;;;;21.15;66.64;100694.84;5040990;28;20049;-62
2023/08/25 09:58:08;;;;;;;6.97;2.53;;;;;;;21.15;66.92;100697.59;5061955;28;20047;-62
2023/08/25 10:00:37;;;;;;;4.53;2.30;;;;;;;21.15;66.96;100691.31;5082466;28;20070;-63
2023/08/25 10:03:08;;;;;;;4.03;3.10;;;;;;;21.10;67.31;100684.00;5066979;28;20057;-63
2023/08/25 10:05:37;;;;;;;4.32;2.50;;;;;;;21.14;67.10;100698.69;5041225;28;20045;-61
2023/08/25 10:08:09;;;;;;;5.00;2.95;;;;;;;21.15;67.23;100696.78;5030543;28;20068;-62
2023/08/25 10:10:40;;;;;;;5.75;2.85;;;;;;;21.13;67.23;100686.13;5090109;28;20075;-62
2023/08/25 10:13:09;;;;;;;3.17;2.33;;;;;;;21.13;66.75;100689.69;5040531;28;20079;-62
2023/08/25 10:15:38;;;;;;;5.18;2.45;;;;;;;21.14;66.51;100698.69;5039174;28;20092;-62
2023/08/25 10:18:07;;;;;;;4.38;2.45;;;;;;;21.13;66.64;100710.72;5038295;28;20049;-62
2023/08/25 10:20:36;;;;;;;6.43;2.50;;;;;;;21.14;66.76;100701.44;5038043;28;20132;-62
2023/08/25 10:23:06;;;;;;;6.03;2.75;;;;;;;21.13;66.89;100688.88;5039067;28;20045;-62
2023/08/25 10:25:37;;;;;;;4.03;2.90;;;;;;;21.13;66.81;100689.69;5039702;28;20054;-62
2023/08/25 10:28:07;;;;;;;6.95;3.10;;;;;;;21.13;66.83;100700.63;5041724;28;20069;-62
2023/08/25 10:30:36;;;;;;;4.15;2.78;;;;;;;21.13;66.63;100700.63;5042635;28;20075;-63
2023/08/25 10:33:09;;;;;;;5.03;2.78;;;;;;;21.13;66.55;100710.72;5039178;28;20064;-63
2023/08/25 10:35:43;;;;;;;4.18;2.90;;;;;;;21.15;66.56;100724.91;5044868;28;20077;-62
2023/08/25 10:38:34;;;;;;;5.03;3.00;;;;;;;21.15;66.73;100722.19;5072169;28;20053;-62
2023/08/25 10:41:14;;;;;;;4.50;2.65;;;;;;;21.14;66.64;100717.81;5059878;27;20064;-62
2023/08/25 10:43:47;;;;;;;5.20;3.50;;;;;;;21.15;67.02;100727.66;5043471;28;20117;-62
2023/08/25 10:46:18;;;;;;;4.90;3.40;;;;;;;21.14;67.05;100728.75;5043314;28;20078;-63
2023/08/25 10:49:06;;;;;;;7.72;4.47;;;;;;;21.13;67.82;100708.81;5049965;28;20079;-63
2023/08/25 10:51:38;;;;;;;6.20;4.18;;;;;;;21.13;67.47;100719.75;5043731;28;20114;-63
2023/08/25 10:54:16;;;;;;;5.15;4.13;;;;;;;21.14;67.77;100712.34;5042994;28;20045;-63
2023/08/25 10:56:45;;;;;;;6.53;4.22;;;;;;;21.14;67.72;100723.28;5043684;28;20045;-63
2023/08/25 10:59:13;;;;;;;6.50;4.60;;;;;;;21.13;68.02;100724.41;5042969;28;20049;-63
2023/08/25 11:01:58;;;;;;;6.03;4.80;;;;;;;21.13;67.52;100708.00;5044145;28;20094;-63
2023/08/25 11:04:29;;;;;;;9.35;4.60;;;;;;;21.12;67.44;100693.53;5043136;28;20457;-61
2023/08/25 11:06:59;;;;;;;6.28;5.20;;;;;;;21.12;67.79;100704.44;5044011;28;20053;-62
2023/08/25 11:09:32;;;;;;;12.63;5.85;;;;;;;21.03;67.86;100684.38;5041008;28;20081;-63
2023/08/25 11:12:06;;;;;;;10.90;5.53;;;;;;;21.12;68.09;100690.78;5043514;28;20053;-61
2023/08/25 11:14:36;;;;;;;8.02;6.00;;;;;;;21.12;68.50;100688.06;5043820;28;20049;-62
2023/08/25 11:17:05;;;;;;;7.80;5.47;;;;;;;21.12;68.23;100695.44;5043663;28;20128;-62
2023/08/25 11:19:36;;;;;;;7.72;5.53;;;;;;;21.12;68.22;100685.31;5041660;28;20503;-62
2023/08/25 11:22:05;;;;;;;6.68;4.95;;;;;;;21.13;67.65;100683.41;5046342;28;20046;-63
2023/08/25 11:24:34;;;;;;;8.40;4.70;;;;;;;21.13;67.52;100691.59;5047472;28;20510;-62
2023/08/25 11:27:07;;;;;;;12.38;4.88;;;;;;;21.07;67.33;100695.50;5031874;28;20102;-61
2023/08/25 11:29:35;;;;;;;9.55;6.30;;;;;;;21.14;67.66;100709.63;5043474;28;20177;-62
2023/08/25 11:32:03;;;;;;;7.22;4.93;;;;;;;21.15;67.86;100702.25;5054571;28;20571;-63
2023/08/25 11:34:31;;;;;;;8.13;5.05;;;;;;;21.06;67.46;100697.44;5042050;28;20071;-62